You are not logged in, Click here to log in
機場資訊:VVTS Welcome to Taiwan Airways 台灣虛擬航空
ICAO: VVTS Country: 越南胡志明市
Latitude: 10.8185 Longitude: 106.659
Total Arrivals: 55 Total Departures: 57
Latest Arrival: VJ0859 (RCNN-VVTS)Gudetama. Chen Latest Departure: VJ858 (VVTS-RCNN)Gudetama. Chen
Scenery:
METAR : VVTS 141800Z 10005KT 070V140 9999 FEW017 SCT050 27/25 Q1010 NOSIG

新山一國際機場SGN